Time;durP1;ratioP1;P1;durP2;ratioP2;P2;SDS_P1;SDS_P2;PMS_P1;PMS_P2;Temp;Humidity;BMP_temperature;BMP_pressure;BME280_temperature;BME280_humidity;BME280_pressure;Samples;Min_cycle;Max_cycle;Signal;HPM_P1;HPM_P2
2023/07/31 00:00:41;;;;;;;;;;;;;;;31.01;30.31;97750.72;5055096;28;20015;-88
2023/07/31 00:03:07;;;;;;;;;;;;;;;31.12;30.19;97753.75;5054908;28;19970;-89
2023/07/31 00:05:33;;;;;;;;;;;;;;;31.18;30.01;97751.03;5055040;28;19959;-89
2023/07/31 00:07:59;;;;;;;;;;;;;;;31.02;30.37;97754.31;5053171;28;19913;-89
2023/07/31 00:10:25;;;;;;;;;;;;;;;31.12;30.24;97756.59;5050986;28;19952;-89
2023/07/31 00:12:51;;;;;;;;;;;;;;;31.18;30.17;97751.78;5050940;28;19932;-89
2023/07/31 00:15:17;;;;;;;;;;;;;;;31.27;29.93;97754.50;5051387;28;19917;-89
2023/07/31 00:17:43;;;;;;;;;;;;;;;31.30;29.63;97747.84;5049741;28;19928;-90
2023/07/31 00:20:09;;;;;;;;;;;;;;;31.10;29.76;97755.50;5051151;28;19924;-89
2023/07/31 00:22:36;;;;;;;;;;;;;;;30.91;30.04;97754.13;5051141;28;19963;-89
2023/07/31 00:25:02;;;;;;;;;;;;;;;31.08;29.93;97755.22;5051722;28;19924;-89
2023/07/31 00:27:28;;;;;;;;;;;;;;;31.15;29.83;97749.94;5051300;28;20007;-89
2023/07/31 00:29:54;;;;;;;;;;;;;;;31.19;29.76;97755.41;5051145;28;20008;-89
2023/07/31 00:32:20;;;;;;;;;;;;;;;31.25;29.40;97756.28;5049455;28;19948;-89
2023/07/31 00:34:46;;;;;;;;;;;;;;;31.00;29.61;97754.03;5051049;28;20288;-89
2023/07/31 00:37:12;;;;;;;;;;;;;;;30.84;29.95;97763.00;5051091;28;19924;-89
2023/07/31 00:39:38;;;;;;;;;;;;;;;30.80;29.95;97759.59;5053159;28;20384;-89
2023/07/31 00:42:04;;;;;;;;;;;;;;;31.00;29.66;97765.38;5055039;28;19959;-89
2023/07/31 00:44:30;;;;;;;;;;;;;;;31.03;30.01;97768.03;5050910;28;19943;-89
2023/07/31 00:46:59;;;;;;;;;;;;;;;30.88;30.22;97770.06;5050405;28;19927;-89
2023/07/31 00:49:25;;;;;;;;;;;;;;;30.69;30.61;97775.09;5066152;28;19962;-89
2023/07/31 00:51:51;;;;;;;;;;;;;;;30.24;31.54;97769.03;5050746;28;19969;-89
2023/07/31 00:54:18;;;;;;;;;;;;;;;30.11;32.04;97772.09;5050693;28;19916;-89
2023/07/31 00:56:45;;;;;;;;;;;;;;;30.10;32.29;97767.72;5050648;28;19921;-89
2023/07/31 00:59:11;;;;;;;;;;;;;;;30.34;31.75;97776.97;5052826;28;20289;-89
2023/07/31 01:01:37;;;;;;;;;;;;;;;30.53;31.35;97766.28;5050232;28;19924;-89
2023/07/31 01:04:03;;;;;;;;;;;;;;;30.77;31.21;97762.13;5050665;28;20053;-89
2023/07/31 01:06:33;;;;;;;;;;;;;;;30.66;31.05;97761.94;5050600;28;20388;-89
2023/07/31 01:09:19;;;;;;;;;;;;;;;30.70;31.52;97771.03;5050536;28;19960;-89
2023/07/31 01:12:01;;;;;;;;;;;;;;;30.63;31.86;97774.22;5050220;28;19925;-89
2023/07/31 01:14:27;;;;;;;;;;;;;;;30.74;31.18;97774.44;5051170;28;19978;-89
2023/07/31 01:16:53;;;;;;;;;;;;;;;30.88;31.31;97760.78;5050158;28;19921;-89
2023/07/31 01:19:23;;;;;;;;;;;;;;;30.96;30.92;97765.59;5050336;28;19917;-90
2023/07/31 01:21:56;;;;;;;;;;;;;;;31.12;30.79;97758.63;5050349;28;19917;-90
2023/07/31 01:24:28;;;;;;;;;;;;;;;31.17;30.85;97760.78;5053210;28;20377;-90
2023/07/31 01:27:09;;;;;;;;;;;;;;;31.23;31.27;97762.44;5054018;28;19923;-90
2023/07/31 01:29:54;;;;;;;;;;;;;;;31.32;30.85;97770.06;5052406;28;19969;-89
2023/07/31 01:32:22;;;;;;;;;;;;;;;31.32;30.83;97768.00;5054302;28;19942;-89
2023/07/31 01:34:48;;;;;;;;;;;;;;;31.21;31.11;97758.53;5053820;28;19920;-89
2023/07/31 01:37:14;;;;;;;;;;;;;;;31.02;32.03;97766.47;5053753;28;19924;-90
2023/07/31 01:39:40;;;;;;;;;;;;;;;30.96;31.73;97771.25;5053505;28;19962;-89
2023/07/31 01:42:07;;;;;;;;;;;;;;;31.18;31.73;97765.19;5053491;28;19925;-90
2023/07/31 01:44:33;;;;;;;;;;;;;;;31.46;31.39;97760.00;5053621;28;19921;-89
2023/07/31 01:47:00;;;;;;;;;;;;;;;31.57;30.30;97765.84;5053423;28;19924;-90
2023/07/31 01:49:26;;;;;;;;;;;;;;;31.30;30.62;97766.94;5054089;28;20049;-89
2023/07/31 01:51:52;;;;;;;;;;;;;;;31.18;31.67;97768.78;5052234;28;19960;-90
2023/07/31 01:54:18;;;;;;;;;;;;;;;31.15;31.76;97772.63;5053379;28;19952;-90
2023/07/31 01:56:44;;;;;;;;;;;;;;;31.17;31.61;97770.09;5053337;28;20300;-90
2023/07/31 01:59:10;;;;;;;;;;;;;;;31.41;31.32;97770.72;5053170;28;19924;-90
2023/07/31 02:01:36;;;;;;;;;;;;;;;31.50;31.49;97772.72;5051904;28;19965;-90
2023/07/31 02:04:02;;;;;;;;;;;;;;;31.51;31.48;97771.44;5053259;28;19921;-90
2023/07/31 02:06:29;;;;;;;;;;;;;;;31.51;31.87;97777.09;5064029;28;19917;-90
2023/07/31 02:08:55;;;;;;;;;;;;;;;31.50;31.71;97781.22;5073217;28;19917;-90
2023/07/31 02:11:21;;;;;;;;;;;;;;;31.48;31.85;97772.44;5073091;28;19931;-90
2023/07/31 02:13:47;;;;;;;;;;;;;;;31.57;31.80;97774.34;5073052;28;20015;-90
2023/07/31 02:16:13;;;;;;;;;;;;;;;31.59;32.19;97781.09;5073148;28;20014;-90
2023/07/31 02:18:39;;;;;;;;;;;;;;;31.56;31.83;97786.97;5073226;28;19916;-90
2023/07/31 02:21:05;;;;;;;;;;;;;;;31.72;31.59;97790.06;5073212;27;19961;-90
2023/07/31 02:23:31;;;;;;;;;;;;;;;31.80;31.61;97796.91;5072223;28;20325;-90
2023/07/31 02:25:57;;;;;;;;;;;;;;;31.76;31.60;97802.03;5073017;28;19964;-90
2023/07/31 02:28:23;;;;;;;;;;;;;;;31.76;32.00;97806.91;5072709;28;19917;-90
2023/07/31 02:30:50;;;;;;;;;;;;;;;31.61;32.31;97809.78;5073167;27;20272;-90
2023/07/31 02:33:16;;;;;;;;;;;;;;;31.65;32.17;97815.28;5072804;28;19917;-90
2023/07/31 02:35:42;;;;;;;;;;;;;;;31.35;32.84;97811.63;5072379;27;19921;-90
2023/07/31 02:38:08;;;;;;;;;;;;;;;31.19;33.08;97812.91;5071683;27;19923;-90
2023/07/31 02:40:34;;;;;;;;;;;;;;;30.74;33.61;97819.00;5071900;28;19920;-89
2023/07/31 02:43:00;;;;;;;;;;;;;;;30.70;33.78;97826.91;5072267;28;19925;-90
2023/07/31 02:45:26;;;;;;;;;;;;;;;30.82;33.72;97816.56;5057528;28;19924;-89
2023/07/31 02:47:52;;;;;;;;;;;;;;;30.47;33.77;97824.91;5052755;28;19923;-89
2023/07/31 02:50:18;;;;;;;;;;;;;;;30.65;33.93;97836.88;5052703;28;19952;-89
2023/07/31 02:52:44;;;;;;;;;;;;;;;29.79;35.16;97832.38;5052619;28;20011;-88
2023/07/31 02:55:10;;;;;;;;;;;;;;;29.59;35.62;97840.63;5066851;28;19921;-89
2023/07/31 02:57:36;;;;;;;;;;;;;;;30.02;34.85;97845.78;5060089;28;19923;-90
2023/07/31 03:00:05;;;;;;;;;;;;;;;30.59;33.68;97849.38;5051391;28;19969;-90
2023/07/31 03:02:32;;;;;;;;;;;;;;;30.57;33.62;97844.16;5052252;28;19917;-89
2023/07/31 03:04:58;;;;;;;;;;;;;;;29.85;34.58;97842.56;5052302;28;19917;-89
2023/07/31 03:07:24;;;;;;;;;;;;;;;30.62;33.88;97854.09;5052284;28;19920;-89
2023/07/31 03:09:50;;;;;;;;;;;;;;;30.38;33.48;97847.66;5052251;28;19966;-89
2023/07/31 03:12:16;;;;;;;;;;;;;;;29.98;34.71;97845.19;5051850;28;19932;-89
2023/07/31 03:14:42;;;;;;;;;;;;;;;29.71;35.11;97853.78;5052719;28;19916;-89
2023/07/31 03:17:08;;;;;;;;;;;;;;;30.36;33.99;97848.13;5052393;28;19924;-89
2023/07/31 03:19:34;;;;;;;;;;;;;;;30.44;33.61;97840.03;5052064;28;19920;-89
2023/07/31 03:22:00;;;;;;;;;;;;;;;30.51;33.84;97846.13;5051922;28;19917;-90
2023/07/31 03:24:26;;;;;;;;;;;;;;;30.49;33.44;97850.69;5051981;28;19936;-88
2023/07/31 03:26:52;;;;;;;;;;;;;;;30.83;33.14;97855.78;5051683;28;19924;-89
2023/07/31 03:29:18;;;;;;;;;;;;;;;30.63;33.15;97855.63;5050693;28;19916;-88
2023/07/31 03:31:44;;;;;;;;;;;;;;;30.36;33.67;97856.63;5052437;28;19928;-88
2023/07/31 03:34:10;;;;;;;;;;;;;;;30.36;33.75;97861.50;5051847;28;19917;-88
2023/07/31 03:36:36;;;;;;;;;;;;;;;30.65;33.31;97855.94;5051914;28;19917;-89
2023/07/31 03:39:03;;;;;;;;;;;;;;;30.76;32.91;97851.25;5051867;28;20313;-89
2023/07/31 03:41:29;;;;;;;;;;;;;;;30.84;32.72;97862.22;5051250;28;19925;-89
2023/07/31 03:43:58;;;;;;;;;;;;;;;31.09;32.39;97856.03;5051981;28;19924;-89
2023/07/31 03:46:24;;;;;;;;;;;;;;;31.48;31.99;97854.72;5050739;28;20449;-89
2023/07/31 03:48:50;;;;;;;;;;;;;;;31.50;31.96;97855.03;5052319;28;19917;-89
2023/07/31 03:51:17;;;;;;;;;;;;;;;31.69;31.82;97847.88;5050329;28;19942;-89
2023/07/31 03:53:43;;;;;;;;;;;;;;;31.66;31.67;97857.34;5051688;28;19956;-88
2023/07/31 03:56:09;;;;;;;;;;;;;;;31.58;31.84;97853.34;5051426;28;19939;-89
2023/07/31 03:58:36;;;;;;;;;;;;;;;31.86;31.35;97853.78;5051566;28;19997;-89
2023/07/31 04:01:03;;;;;;;;;;;;;;;31.77;31.43;97856.72;5051429;28;19917;-89
2023/07/31 04:03:29;;;;;;;;;;;;;;;31.71;31.47;97859.50;5051406;28;19923;-89
2023/07/31 04:05:56;;;;;;;;;;;;;;;31.66;31.75;97853.72;5051923;28;19924;-89
2023/07/31 04:08:22;;;;;;;;;;;;;;;31.63;31.91;97854.69;5051387;28;19926;-89
2023/07/31 04:10:48;;;;;;;;;;;;;;;31.31;32.25;97857.25;5051005;28;19916;-88
2023/07/31 04:13:15;;;;;;;;;;;;;;;31.40;32.61;97851.47;5051121;28;19979;-89
2023/07/31 04:15:41;;;;;;;;;;;;;;;31.50;32.18;97852.19;5051298;28;19956;-89
2023/07/31 04:18:07;;;;;;;;;;;;;;;31.73;32.12;97847.66;5053708;28;19917;-89
2023/07/31 04:20:33;;;;;;;;;;;;;;;31.56;32.21;97849.41;5054877;28;19921;-89
2023/07/31 04:22:59;;;;;;;;;;;;;;;31.46;32.17;97847.97;5055157;28;19923;-89
2023/07/31 04:25:25;;;;;;;;;;;;;;;31.62;32.35;97853.94;5053192;28;20334;-89
2023/07/31 04:27:51;;;;;;;;;;;;;;;31.90;32.42;97851.53;5061053;28;19917;-89
2023/07/31 04:30:17;;;;;;;;;;;;;;;32.38;31.48;97851.97;5064468;28;19940;-90
2023/07/31 04:32:43;;;;;;;;;;;;;;;33.04;30.94;97857.75;5051029;28;19916;-89
2023/07/31 04:35:09;;;;;;;;;;;;;;;33.29;30.08;97862.66;5050998;28;20399;-89
2023/07/31 04:37:35;;;;;;;;;;;;;;;32.66;30.57;97861.69;5050937;28;20007;-89
2023/07/31 04:40:01;;;;;;;;;;;;;;;32.55;31.18;97865.19;5051111;28;19916;-89
2023/07/31 04:42:27;;;;;;;;;;;;;;;32.80;31.05;97862.88;5049341;28;20304;-90
2023/07/31 04:44:53;;;;;;;;;;;;;;;33.09;30.65;97872.06;5050851;28;19917;-89
2023/07/31 04:47:19;;;;;;;;;;;;;;;32.91;30.25;97871.56;5050879;28;19913;-89
2023/07/31 04:49:45;;;;;;;;;;;;;;;32.99;29.98;97872.66;5050821;28;19917;-90
2023/07/31 04:52:11;;;;;;;;;;;;;;;32.76;30.16;97880.16;5050768;28;20427;-89
2023/07/31 04:54:37;;;;;;;;;;;;;;;32.43;30.65;97882.53;5050497;28;19948;-90
2023/07/31 04:57:03;;;;;;;;;;;;;;;32.23;30.51;97880.44;5065891;28;20115;-88
2023/07/31 04:59:29;;;;;;;;;;;;;;;32.14;30.74;97876.97;5069421;28;19912;-89
2023/07/31 05:01:55;;;;;;;;;;;;;;;32.02;31.12;97893.81;5070462;28;19923;-89
2023/07/31 05:04:21;;;;;;;;;;;;;;;32.23;30.53;97891.06;5070522;28;20011;-89
2023/07/31 05:06:47;;;;;;;;;;;;;;;31.85;31.12;97887.09;5069284;27;19912;-88
2023/07/31 05:09:13;;;;;;;;;;;;;;;31.72;31.42;97892.28;5070216;28;19943;-88
2023/07/31 05:11:40;;;;;;;;;;;;;;;31.80;31.10;97893.47;5069102;27;19931;-89
2023/07/31 05:14:07;;;;;;;;;;;;;;;31.90;31.06;97897.72;5069679;28;19985;-88
2023/07/31 05:16:33;;;;;;;;;;;;;;;31.92;31.16;97900.09;5070378;28;20296;-90
2023/07/31 05:18:59;;;;;;;;;;;;;;;31.93;31.40;97901.66;5055348;28;19917;-89
2023/07/31 05:21:25;;;;;;;;;;;;;;;31.60;31.78;97907.56;5050390;28;19917;-88
2023/07/31 05:23:51;;;;;;;;;;;;;;;31.67;31.70;97915.69;5050384;28;19924;-89
2023/07/31 05:26:17;;;;;;;;;;;;;;;31.81;31.55;97914.88;5050588;28;19917;-89
2023/07/31 05:28:43;;;;;;;;;;;;;;;31.68;31.39;97914.41;5050409;28;19927;-89
2023/07/31 05:31:09;;;;;;;;;;;;;;;31.17;32.16;97911.91;5050909;28;19920;-89
2023/07/31 05:33:35;;;;;;;;;;;;;;;31.09;32.28;97907.88;5050331;28;20331;-88
2023/07/31 05:36:01;;;;;;;;;;;;;;;30.91;32.34;97907.25;5049961;28;19962;-89
2023/07/31 05:38:27;;;;;;;;;;;;;;;31.12;32.17;97918.25;5050003;28;19961;-89
2023/07/31 05:40:53;;;;;;;;;;;;;;;31.19;32.30;97920.72;5060579;28;19920;-88
2023/07/31 05:43:19;;;;;;;;;;;;;;;31.32;31.61;97917.63;5069976;28;19917;-89
2023/07/31 05:45:45;;;;;;;;;;;;;;;31.39;31.88;97920.06;5069930;28;20300;-89
2023/07/31 05:48:11;;;;;;;;;;;;;;;31.56;31.26;97923.22;5069213;28;19916;-89
2023/07/31 05:50:39;;;;;;;;;;;;;;;31.45;31.69;97917.34;5069765;28;20381;-88
2023/07/31 05:53:06;;;;;;;;;;;;;;;31.27;31.90;97921.13;5069949;28;19948;-89
2023/07/31 05:55:32;;;;;;;;;;;;;;;31.53;31.55;97924.22;5069928;28;19917;-88
2023/07/31 05:57:58;;;;;;;;;;;;;;;31.43;31.51;97912.16;5069915;28;19916;-88
2023/07/31 06:00:24;;;;;;;;;;;;;;;30.99;32.46;97919.81;5070034;27;19927;-89
2023/07/31 06:02:51;;;;;;;;;;;;;;;31.22;31.78;97922.59;5068326;28;19987;-89
2023/07/31 06:05:17;;;;;;;;;;;;;;;31.07;32.32;97921.78;5052221;28;20307;-89
2023/07/31 06:07:43;;;;;;;;;;;;;;;31.57;31.67;97921.97;5049827;28;19913;-89
2023/07/31 06:10:09;;;;;;;;;;;;;;;31.78;31.03;97932.13;5051966;28;19917;-89
2023/07/31 06:12:35;;;;;;;;;;;;;;;31.79;30.75;97920.28;5053107;28;19969;-88
2023/07/31 06:15:03;;;;;;;;;;;;;;;31.28;31.42;97923.47;5053174;28;19961;-89
2023/07/31 06:17:29;;;;;;;;;;;;;;;31.46;31.63;97924.59;5053014;28;19940;-89
2023/07/31 06:19:56;;;;;;;;;;;;;;;31.23;31.85;97926.19;5052800;28;19917;-89
2023/07/31 06:22:22;;;;;;;;;;;;;;;31.37;31.74;97925.44;5053834;28;19939;-89
2023/07/31 06:24:48;;;;;;;;;;;;;;;31.47;31.77;97929.78;5053098;28;19917;-89
2023/07/31 06:27:14;;;;;;;;;;;;;;;31.80;31.56;97932.44;5052946;28;19977;-89
2023/07/31 06:29:41;;;;;;;;;;;;;;;31.78;31.37;97934.97;5052971;28;19917;-88
2023/07/31 06:32:07;;;;;;;;;;;;;;;31.90;30.98;97931.81;5053171;28;19985;-89
2023/07/31 06:34:33;;;;;;;;;;;;;;;32.00;30.53;97929.69;5052676;28;19954;-89
2023/07/31 06:36:59;;;;;;;;;;;;;;;31.81;30.92;97922.66;5052959;28;19917;-88
2023/07/31 06:39:25;;;;;;;;;;;;;;;31.55;31.33;97930.19;5053327;28;19924;-89
2023/07/31 06:41:51;;;;;;;;;;;;;;;31.52;31.06;97929.09;5051142;28;19925;-88
2023/07/31 06:44:17;;;;;;;;;;;;;;;31.35;31.31;97923.09;5052645;28;19917;-88
2023/07/31 06:46:43;;;;;;;;;;;;;;;31.43;31.62;97929.19;5052667;28;19978;-89
2023/07/31 06:49:09;;;;;;;;;;;;;;;31.51;31.29;97927.53;5052536;28;19920;-89
2023/07/31 06:51:36;;;;;;;;;;;;;;;31.73;30.84;97930.78;5052577;28;20384;-88
2023/07/31 06:54:02;;;;;;;;;;;;;;;31.71;31.05;97930.47;5052720;28;19917;-89
2023/07/31 06:56:28;;;;;;;;;;;;;;;31.79;31.09;97928.00;5071411;28;20373;-89
2023/07/31 06:58:55;;;;;;;;;;;;;;;32.11;31.17;97929.09;5072457;28;20397;-89
2023/07/31 07:01:21;;;;;;;;;;;;;;;31.86;30.94;97925.56;5072335;28;20011;-88
2023/07/31 07:03:50;;;;;;;;;;;;;;;31.90;31.52;97916.84;5072299;27;20012;-89
2023/07/31 07:06:16;;;;;;;;;;;;;;;31.95;30.90;97925.44;5072577;28;19969;-89
2023/07/31 07:08:42;;;;;;;;;;;;;;;32.25;30.71;97920.53;5072547;28;19928;-90
2023/07/31 07:11:09;;;;;;;;;;;;;;;32.41;29.81;97922.06;5071825;28;20007;-88
2023/07/31 07:13:35;;;;;;;;;;;;;;;32.24;30.73;97915.34;5071721;28;19963;-90
2023/07/31 07:16:01;;;;;;;;;;;;;;;32.57;30.05;97918.69;5072099;28;19923;-88
2023/07/31 07:18:27;;;;;;;;;;;;;;;32.73;29.63;97920.97;5071900;28;19917;-89
2023/07/31 07:20:53;;;;;;;;;;;;;;;32.77;29.95;97921.53;5072120;28;19920;-89
2023/07/31 07:23:20;;;;;;;;;;;;;;;32.47;29.38;97926.53;5072174;27;19917;-88
2023/07/31 07:25:47;;;;;;;;;;;;;;;32.47;29.17;97922.91;5072137;28;19958;-89
2023/07/31 07:28:13;;;;;;;;;;;;;;;32.55;29.39;97918.41;5071396;28;20310;-88
2023/07/31 07:30:39;;;;;;;;;;;;;;;32.54;29.77;97922.50;5052053;28;20003;-89
2023/07/31 07:33:05;;;;;;;;;;;;;;;32.92;29.33;97927.16;5051787;28;19913;-89
2023/07/31 07:35:35;;;;;;;;;;;;;;;32.58;29.21;97932.41;5051959;28;19917;-89
2023/07/31 07:38:02;;;;;;;;;;;;;;;31.71;30.07;97927.63;5050435;28;19917;-89
2023/07/31 07:40:28;;;;;;;;;;;;;;;32.07;30.44;97930.06;5051899;28;19913;-89
2023/07/31 07:42:54;;;;;;;;;;;;;;;32.21;30.06;97936.22;5066962;27;20061;-88
2023/07/31 07:45:20;;;;;;;;;;;;;;;32.00;30.05;97929.69;5052352;28;19924;-88
2023/07/31 07:47:46;;;;;;;;;;;;;;;32.32;30.45;97930.72;5051678;28;20289;-89
2023/07/31 07:50:12;;;;;;;;;;;;;;;32.55;29.08;97933.41;5051605;28;19917;-88
2023/07/31 07:52:38;;;;;;;;;;;;;;;32.43;29.36;97933.69;5051583;28;19917;-88
2023/07/31 07:55:04;;;;;;;;;;;;;;;32.60;29.50;97943.28;5051841;28;19928;-89
2023/07/31 07:57:30;;;;;;;;;;;;;;;32.58;29.69;97940.16;5051655;28;19916;-90
2023/07/31 07:59:56;;;;;;;;;;;;;;;32.75;28.87;97933.41;5051560;28;20334;-89
2023/07/31 08:02:22;;;;;;;;;;;;;;;32.55;29.02;97935.47;5051610;28;19917;-89
2023/07/31 08:04:48;;;;;;;;;;;;;;;32.88;28.98;97938.75;5051478;28;19917;-89
2023/07/31 08:07:14;;;;;;;;;;;;;;;32.38;29.05;97937.25;5051430;28;19920;-88
2023/07/31 08:09:40;;;;;;;;;;;;;;;32.61;29.34;97944.84;5051427;28;19921;-89
2023/07/31 08:12:07;;;;;;;;;;;;;;;33.06;29.26;97949.09;5051197;28;19925;-89
2023/07/31 08:14:33;;;;;;;;;;;;;;;33.52;28.45;97946.22;5051143;28;19966;-89
2023/07/31 08:16:59;;;;;;;;;;;;;;;33.68;28.16;97945.66;5051039;28;19913;-89
2023/07/31 08:19:25;;;;;;;;;;;;;;;33.61;27.77;97943.25;5051711;28;19916;-88
2023/07/31 08:21:51;;;;;;;;;;;;;;;33.73;28.44;97944.91;5051361;28;19917;-89
2023/07/31 08:24:17;;;;;;;;;;;;;;;33.49;28.19;97944.41;5051135;28;19917;-90
2023/07/31 08:26:43;;;;;;;;;;;;;;;33.74;28.32;97952.97;5051191;28;19924;-90
2023/07/31 08:29:09;;;;;;;;;;;;;;;33.95;27.48;97950.81;5061545;28;19945;-90
2023/07/31 08:31:35;;;;;;;;;;;;;;;33.99;27.45;97954.22;5077764;28;20386;-89
2023/07/31 08:34:01;;;;;;;;;;;;;;;33.94;27.64;97957.78;5082117;28;19916;-89
2023/07/31 08:36:27;;;;;;;;;;;;;;;34.00;27.80;97947.25;5075130;28;19944;-90
2023/07/31 08:38:53;;;;;;;;;;;;;;;33.97;27.42;97960.44;5052035;28;20366;-90
2023/07/31 08:41:20;;;;;;;;;;;;;;;34.15;27.79;97959.28;5050976;28;19925;-89
2023/07/31 08:43:46;;;;;;;;;;;;;;;34.31;28.33;97960.72;5051175;28;19963;-89
2023/07/31 08:46:14;;;;;;;;;;;;;;;34.62;27.39;97950.06;5050768;28;19923;-89
2023/07/31 08:48:41;;;;;;;;;;;;;;;34.80;26.56;97953.81;5050868;28;19917;-89
2023/07/31 08:51:07;;;;;;;;;;;;;;;34.54;27.08;97954.66;5050907;28;19917;-90
2023/07/31 08:53:33;;;;;;;;;;;;;;;34.60;27.46;97961.22;5053649;28;20015;-89
2023/07/31 08:55:59;;;;;;;;;;;;;;;34.53;27.65;97944.56;5070721;28;19916;-89
2023/07/31 08:58:27;;;;;;;;;;;;;;;34.57;26.36;97950.03;5070679;28;19921;-90
2023/07/31 09:00:54;;;;;;;;;;;;;;;34.65;25.99;97954.75;5070412;28;19963;-89
2023/07/31 09:03:22;;;;;;;;;;;;;;;34.40;26.08;97957.69;5060382;28;19924;-89
2023/07/31 09:05:49;;;;;;;;;;;;;;;34.32;26.12;97962.28;5050557;28;20013;-89
2023/07/31 09:08:18;;;;;;;;;;;;;;;34.66;26.71;97949.81;5057458;28;19957;-90
2023/07/31 09:10:47;;;;;;;;;;;;;;;34.96;26.70;97941.69;5065765;27;20007;-90
2023/07/31 09:13:14;;;;;;;;;;;;;;;34.98;26.63;97941.94;5050314;28;19964;-90
2023/07/31 09:15:42;;;;;;;;;;;;;;;35.38;26.43;97942.34;5050277;28;19951;-90
2023/07/31 09:18:08;;;;;;;;;;;;;;;35.37;24.99;97942.88;5050539;28;19917;-90
2023/07/31 09:20:35;;;;;;;;;;;;;;;35.55;26.75;97941.66;5050404;28;20385;-90
2023/07/31 09:23:05;;;;;;;;;;;;;;;35.74;25.79;97937.78;5049085;28;20378;-90
2023/07/31 09:25:32;;;;;;;;;;;;;;;35.93;24.54;97938.06;5050396;28;19917;-90
2023/07/31 09:27:59;;;;;;;;;;;;;;;36.00;25.40;97937.56;5050674;28;19913;-90
2023/07/31 09:30:25;;;;;;;;;;;;;;;36.22;25.07;97933.94;5050905;28;20373;-90
2023/07/31 09:32:59;;;;;;;;;;;;;;;36.33;24.21;97934.69;5070734;28;20281;-90
2023/07/31 09:35:33;;;;;;;;;;;;;;;36.57;24.02;97925.59;5070326;28;19936;-89
2023/07/31 09:38:00;;;;;;;;;;;;;;;36.14;23.58;97927.16;5070264;28;19916;-89
2023/07/31 09:40:27;;;;;;;;;;;;;;;36.13;24.53;97932.09;5070240;28;20365;-89
2023/07/31 09:42:54;;;;;;;;;;;;;;;36.13;23.38;97928.47;5057866;27;19931;-89
2023/07/31 09:45:20;;;;;;;;;;;;;;;35.42;24.39;97922.13;5053088;28;20003;-89
2023/07/31 09:47:47;;;;;;;;;;;;;;;35.03;25.21;97910.59;5053511;28;20394;-88
2023/07/31 09:50:14;;;;;;;;;;;;;;;35.48;25.17;97905.00;5054517;28;19967;-89
2023/07/31 09:52:40;;;;;;;;;;;;;;;35.58;24.25;97912.84;5058257;28;19924;-90
2023/07/31 09:55:06;;;;;;;;;;;;;;;35.65;24.77;97908.69;5053434;28;19917;-90
2023/07/31 09:57:32;;;;;;;;;;;;;;;35.30;24.76;97901.34;5072688;28;20023;-89
2023/07/31 09:59:59;;;;;;;;;;;;;;;35.54;25.48;97903.75;5073458;28;19941;-89
2023/07/31 10:02:26;;;;;;;;;;;;;;;35.92;24.64;97905.06;5065005;27;19916;-88
2023/07/31 10:04:56;;;;;;;;;;;;;;;35.60;24.70;97906.59;5073178;28;19923;-89
2023/07/31 10:07:24;;;;;;;;;;;;;;;35.37;24.70;97900.84;5071364;28;19963;-88
2023/07/31 10:09:51;;;;;;;;;;;;;;;35.31;24.18;97902.88;5053212;28;19921;-89
2023/07/31 10:12:19;;;;;;;;;;;;;;;35.45;25.31;97901.13;5053142;28;19965;-89
2023/07/31 10:14:45;;;;;;;;;;;;;;;35.27;24.23;97893.81;5053195;28;19969;-88
2023/07/31 10:17:11;;;;;;;;;;;;;;;35.85;24.04;97891.31;5053251;28;19950;-89
2023/07/31 10:19:38;;;;;;;;;;;;;;;36.32;23.38;97893.09;5064478;28;19920;-89
2023/07/31 10:22:05;;;;;;;;;;;;;;;35.10;25.04;97887.25;5073083;28;20284;-89
2023/07/31 10:24:32;;;;;;;;;;;;;;;34.84;24.56;97886.66;5073120;28;20436;-89
2023/07/31 10:27:00;;;;;;;;;;;;;;;35.29;24.39;97879.78;5072950;28;19919;-87
2023/07/31 10:29:27;;;;;;;;;;;;;;;33.62;25.54;97885.78;5072799;28;19917;-88
2023/07/31 10:31:54;;;;;;;;;;;;;;;34.39;24.99;97879.13;5072926;28;19919;-88
2023/07/31 10:34:20;;;;;;;;;;;;;;;33.82;26.04;97888.53;5072532;28;19921;-88
2023/07/31 10:36:46;;;;;;;;;;;;;;;34.98;24.45;97859.97;5072140;28;19983;-89
2023/07/31 10:39:30;;;;;;;;;;;;;;;35.80;23.71;97877.81;5072854;28;20394;-90
2023/07/31 10:41:56;;;;;;;;;;;;;;;36.64;22.93;97857.13;5072559;27;19976;-89
2023/07/31 10:44:22;;;;;;;;;;;;;;;36.22;22.15;97865.31;5052716;28;19924;-89
2023/07/31 10:46:48;;;;;;;;;;;;;;;35.93;21.77;97863.75;5052915;28;19962;-89
2023/07/31 10:49:20;;;;;;;;;;;;;;;36.25;22.64;97853.59;5052349;28;19966;-89
2023/07/31 10:51:47;;;;;;;;;;;;;;;36.90;22.27;97856.75;5052551;28;19916;-89
2023/07/31 10:54:22;;;;;;;;;;;;;;;35.85;22.85;97857.78;5067613;28;19916;-88
2023/07/31 10:56:52;;;;;;;;;;;;;;;36.48;22.24;97854.34;5072255;28;19963;-88
2023/07/31 10:59:20;;;;;;;;;;;;;;;36.20;21.54;97848.66;5072559;28;20365;-89
2023/07/31 11:01:53;;;;;;;;;;;;;;;36.32;21.80;97852.28;5071991;28;19923;-89
2023/07/31 11:04:24;;;;;;;;;;;;;;;36.24;21.18;97856.97;5072434;28;19931;-90
2023/07/31 11:07:01;;;;;;;;;;;;;;;35.39;22.14;97848.91;5072540;28;20501;-88
2023/07/31 11:09:29;;;;;;;;;;;;;;;35.76;22.74;97852.31;5069991;28;19917;-89
2023/07/31 11:11:55;;;;;;;;;;;;;;;35.56;23.68;97852.59;5052325;28;20297;-88
2023/07/31 11:14:22;;;;;;;;;;;;;;;35.68;22.72;97845.59;5052438;28;19969;-90
2023/07/31 11:16:51;;;;;;;;;;;;;;;35.82;22.10;97841.69;5052033;28;19962;-89
2023/07/31 11:19:21;;;;;;;;;;;;;;;35.71;22.02;97847.38;5052221;28;19917;-90
2023/07/31 11:21:47;;;;;;;;;;;;;;;35.87;23.40;97834.41;5052113;28;19924;-90
2023/07/31 11:24:13;;;;;;;;;;;;;;;35.81;21.96;97833.63;5052347;28;19925;-89
2023/07/31 11:26:47;;;;;;;;;;;;;;;35.37;22.49;97832.31;5052645;28;19923;-88
2023/07/31 11:29:13;;;;;;;;;;;;;;;35.42;23.33;97820.13;5052032;28;19917;-89
2023/07/31 11:31:43;;;;;;;;;;;;;;;35.42;22.08;97830.75;5060041;28;19917;-89
2023/07/31 11:34:09;;;;;;;;;;;;;;;35.92;22.87;97828.66;5071955;27;19952;-89
2023/07/31 11:36:35;;;;;;;;;;;;;;;36.49;22.26;97830.94;5071976;28;19920;-89
2023/07/31 11:39:10;;;;;;;;;;;;;;;36.15;21.69;97828.69;5072014;28;19916;-89
2023/07/31 11:41:36;;;;;;;;;;;;;;;36.35;21.12;97832.00;5063734;28;20329;-90
2023/07/31 11:44:02;;;;;;;;;;;;;;;36.67;22.60;97833.19;5052356;28;20007;-89
2023/07/31 11:46:30;;;;;;;;;;;;;;;37.27;21.72;97834.19;5051655;28;19921;-89
2023/07/31 11:48:59;;;;;;;;;;;;;;;37.64;22.41;97830.81;5051807;28;20445;-90
2023/07/31 11:51:26;;;;;;;;;;;;;;;37.57;19.25;97816.28;5051529;28;19955;-88
2023/07/31 11:53:55;;;;;;;;;;;;;;;37.38;20.06;97819.81;5051871;28;19948;-90
2023/07/31 11:56:22;;;;;;;;;;;;;;;37.49;20.14;97813.22;5051623;28;19924;-88
2023/07/31 11:58:53;;;;;;;;;;;;;;;37.17;20.92;97817.88;5051643;28;20381;-89
2023/07/31 12:01:20;;;;;;;;;;;;;;;37.54;21.47;97805.88;5052046;28;19923;-89
2023/07/31 12:03:47;;;;;;;;;;;;;;;37.99;18.92;97812.81;5051365;28;20015;-89
2023/07/31 12:06:13;;;;;;;;;;;;;;;37.90;18.77;97810.28;5051096;28;19942;-88
2023/07/31 12:08:39;;;;;;;;;;;;;;;37.63;19.58;97806.34;5051160;28;19917;-89
2023/07/31 12:11:06;;;;;;;;;;;;;;;36.71;20.41;97810.78;5051057;28;19925;-87
2023/07/31 12:13:33;;;;;;;;;;;;;;;36.36;20.45;97812.75;5050020;28;20020;-88
2023/07/31 12:16:00;;;;;;;;;;;;;;;36.36;21.88;97804.19;5052280;28;19921;-89
2023/07/31 12:18:27;;;;;;;;;;;;;;;36.62;22.04;97801.72;5061245;28;19920;-89
2023/07/31 12:20:54;;;;;;;;;;;;;;;35.76;21.95;97806.63;5071242;28;20445;-88
2023/07/31 12:23:41;;;;;;;;;;;;;;;36.08;21.40;97805.03;5071118;28;19923;-88
2023/07/31 12:26:08;;;;;;;;;;;;;;;36.12;21.75;97793.34;5071095;28;19917;-87
2023/07/31 12:28:45;;;;;;;;;;;;;;;36.42;21.44;97794.28;5071091;28;20289;-88
2023/07/31 12:31:12;;;;;;;;;;;;;;;36.44;20.69;97791.66;5066528;28;20448;-88
2023/07/31 12:33:39;;;;;;;;;;;;;;;36.78;20.01;97795.19;5051017;28;19964;-88
2023/07/31 12:36:24;;;;;;;;;;;;;;;36.82;20.63;97780.56;5051549;28;19917;-88
2023/07/31 12:38:51;;;;;;;;;;;;;;;37.14;20.88;97779.59;5051002;28;19938;-89
2023/07/31 12:41:17;;;;;;;;;;;;;;;37.36;20.59;97773.72;5051046;28;19925;-89
2023/07/31 12:43:44;;;;;;;;;;;;;;;37.71;21.02;97778.66;5050867;27;19924;-88
2023/07/31 12:46:11;;;;;;;;;;;;;;;37.41;19.78;97769.28;5050887;28;19924;-88